sensor_id;sensor_type;location;lat;lon;timestamp;P1;durP1;ratioP1;P2;durP2;ratioP2
53293;SDS011;39181;53.440;5.644;2023-10-31T00:01:28;14.45;;;3.30;;
53293;SDS011;39181;53.440;5.644;2023-10-31T00:03:54;20.05;;;2.67;;
53293;SDS011;39181;53.440;5.644;2023-10-31T00:06:19;15.00;;;2.95;;
53293;SDS011;39181;53.440;5.644;2023-10-31T00:08:45;12.95;;;2.25;;
53293;SDS011;39181;53.440;5.644;2023-10-31T00:11:11;14.68;;;2.33;;
53293;SDS011;39181;53.440;5.644;2023-10-31T00:13:37;14.02;;;2.88;;
53293;SDS011;39181;53.440;5.644;2023-10-31T00:16:02;12.63;;;2.25;;
53293;SDS011;39181;53.440;5.644;2023-10-31T00:18:28;17.60;;;2.50;;
53293;SDS011;39181;53.440;5.644;2023-10-31T00:20:54;13.77;;;1.95;;
53293;SDS011;39181;53.440;5.644;2023-10-31T00:23:19;8.93;;;1.88;;
53293;SDS011;39181;53.440;5.644;2023-10-31T00:25:45;11.55;;;2.38;;
53293;SDS011;39181;53.440;5.644;2023-10-31T00:28:10;14.85;;;2.03;;
53293;SDS011;39181;53.440;5.644;2023-10-31T00:30:36;13.88;;;2.50;;
53293;SDS011;39181;53.440;5.644;2023-10-31T00:33:01;12.88;;;2.00;;
53293;SDS011;39181;53.440;5.644;2023-10-31T00:35:27;11.25;;;1.85;;
53293;SDS011;39181;53.440;5.644;2023-10-31T00:37:52;11.27;;;1.70;;
53293;SDS011;39181;53.440;5.644;2023-10-31T00:40:18;6.72;;;1.15;;
53293;SDS011;39181;53.440;5.644;2023-10-31T00:42:44;9.68;;;2.10;;
53293;SDS011;39181;53.440;5.644;2023-10-31T00:45:09;9.95;;;1.70;;
53293;SDS011;39181;53.440;5.644;2023-10-31T00:47:35;7.82;;;1.23;;
53293;SDS011;39181;53.440;5.644;2023-10-31T00:50:01;9.23;;;1.42;;
53293;SDS011;39181;53.440;5.644;2023-10-31T00:52:27;15.20;;;1.65;;
53293;SDS011;39181;53.440;5.644;2023-10-31T00:54:53;7.63;;;1.48;;
53293;SDS011;39181;53.440;5.644;2023-10-31T00:57:18;10.10;;;1.38;;
53293;SDS011;39181;53.440;5.644;2023-10-31T00:59:44;7.50;;;1.55;;
53293;SDS011;39181;53.440;5.644;2023-10-31T01:02:09;11.43;;;1.67;;
53293;SDS011;39181;53.440;5.644;2023-10-31T01:04:38;8.93;;;1.40;;
53293;SDS011;39181;53.440;5.644;2023-10-31T01:07:04;9.27;;;1.30;;
53293;SDS011;39181;53.440;5.644;2023-10-31T01:09:29;6.65;;;1.10;;
53293;SDS011;39181;53.440;5.644;2023-10-31T01:11:55;11.93;;;1.92;;
53293;SDS011;39181;53.440;5.644;2023-10-31T01:14:21;9.20;;;1.45;;
53293;SDS011;39181;53.440;5.644;2023-10-31T01:16:46;8.32;;;1.55;;
53293;SDS011;39181;53.440;5.644;2023-10-31T01:19:12;17.60;;;2.45;;
53293;SDS011;39181;53.440;5.644;2023-10-31T01:21:37;10.95;;;1.30;;
53293;SDS011;39181;53.440;5.644;2023-10-31T01:24:03;12.32;;;1.52;;
53293;SDS011;39181;53.440;5.644;2023-10-31T01:26:29;12.75;;;1.38;;
53293;SDS011;39181;53.440;5.644;2023-10-31T01:28:54;21.55;;;1.88;;
53293;SDS011;39181;53.440;5.644;2023-10-31T01:31:20;15.73;;;1.70;;
53293;SDS011;39181;53.440;5.644;2023-10-31T01:33:45;14.45;;;2.08;;
53293;SDS011;39181;53.440;5.644;2023-10-31T01:36:11;13.65;;;1.98;;
53293;SDS011;39181;53.440;5.644;2023-10-31T01:38:37;14.77;;;2.55;;
53293;SDS011;39181;53.440;5.644;2023-10-31T01:41:03;17.33;;;2.35;;
53293;SDS011;39181;53.440;5.644;2023-10-31T01:43:30;16.10;;;1.95;;
53293;SDS011;39181;53.440;5.644;2023-10-31T01:45:56;16.60;;;1.55;;
53293;SDS011;39181;53.440;5.644;2023-10-31T01:48:21;26.83;;;2.72;;
53293;SDS011;39181;53.440;5.644;2023-10-31T01:50:48;14.07;;;1.58;;
53293;SDS011;39181;53.440;5.644;2023-10-31T01:53:15;14.95;;;1.23;;
53293;SDS011;39181;53.440;5.644;2023-10-31T01:55:40;11.57;;;0.90;;
53293;SDS011;39181;53.440;5.644;2023-10-31T01:58:07;10.15;;;1.10;;
53293;SDS011;39181;53.440;5.644;2023-10-31T02:00:34;16.52;;;1.50;;
53293;SDS011;39181;53.440;5.644;2023-10-31T02:03:00;18.70;;;2.28;;
53293;SDS011;39181;53.440;5.644;2023-10-31T02:05:27;25.02;;;2.28;;
53293;SDS011;39181;53.440;5.644;2023-10-31T02:07:53;21.67;;;2.25;;
53293;SDS011;39181;53.440;5.644;2023-10-31T02:10:19;15.95;;;1.92;;
53293;SDS011;39181;53.440;5.644;2023-10-31T02:12:44;23.83;;;2.42;;
53293;SDS011;39181;53.440;5.644;2023-10-31T02:15:10;15.50;;;2.67;;
53293;SDS011;39181;53.440;5.644;2023-10-31T02:17:36;25.77;;;2.78;;
53293;SDS011;39181;53.440;5.644;2023-10-31T02:20:02;18.15;;;2.70;;
53293;SDS011;39181;53.440;5.644;2023-10-31T02:22:27;10.90;;;1.60;;
53293;SDS011;39181;53.440;5.644;2023-10-31T02:24:53;12.73;;;1.48;;
53293;SDS011;39181;53.440;5.644;2023-10-31T02:27:19;11.00;;;1.35;;
53293;SDS011;39181;53.440;5.644;2023-10-31T02:29:44;6.45;;;1.13;;
53293;SDS011;39181;53.440;5.644;2023-10-31T02:32:10;6.93;;;1.17;;
53293;SDS011;39181;53.440;5.644;2023-10-31T02:34:35;5.68;;;0.90;;
53293;SDS011;39181;53.440;5.644;2023-10-31T02:37:01;9.45;;;1.30;;
53293;SDS011;39181;53.440;5.644;2023-10-31T02:39:26;2.22;;;0.73;;
53293;SDS011;39181;53.440;5.644;2023-10-31T02:41:52;5.80;;;0.82;;
53293;SDS011;39181;53.440;5.644;2023-10-31T02:44:17;7.55;;;0.93;;
53293;SDS011;39181;53.440;5.644;2023-10-31T02:46:43;6.43;;;0.88;;
53293;SDS011;39181;53.440;5.644;2023-10-31T02:49:09;9.85;;;1.25;;
53293;SDS011;39181;53.440;5.644;2023-10-31T02:51:35;9.57;;;1.10;;
53293;SDS011;39181;53.440;5.644;2023-10-31T02:54:00;4.35;;;0.80;;
53293;SDS011;39181;53.440;5.644;2023-10-31T02:56:26;17.08;;;1.05;;
53293;SDS011;39181;53.440;5.644;2023-10-31T02:58:52;7.53;;;1.08;;
53293;SDS011;39181;53.440;5.644;2023-10-31T03:01:17;6.97;;;1.10;;
53293;SDS011;39181;53.440;5.644;2023-10-31T03:03:45;7.97;;;0.90;;
53293;SDS011;39181;53.440;5.644;2023-10-31T03:06:10;15.63;;;0.85;;
53293;SDS011;39181;53.440;5.644;2023-10-31T03:08:36;7.25;;;0.98;;
53293;SDS011;39181;53.440;5.644;2023-10-31T03:11:01;11.23;;;1.10;;
53293;SDS011;39181;53.440;5.644;2023-10-31T03:13:27;10.38;;;1.08;;
53293;SDS011;39181;53.440;5.644;2023-10-31T03:15:52;9.88;;;0.90;;
53293;SDS011;39181;53.440;5.644;2023-10-31T03:18:18;5.38;;;0.85;;
53293;SDS011;39181;53.440;5.644;2023-10-31T03:20:44;10.52;;;0.82;;
53293;SDS011;39181;53.440;5.644;2023-10-31T03:23:11;6.20;;;0.95;;
53293;SDS011;39181;53.440;5.644;2023-10-31T03:25:37;6.45;;;1.00;;
53293;SDS011;39181;53.440;5.644;2023-10-31T03:28:03;11.60;;;1.10;;
53293;SDS011;39181;53.440;5.644;2023-10-31T03:30:29;15.05;;;1.00;;
53293;SDS011;39181;53.440;5.644;2023-10-31T03:32:55;7.75;;;1.15;;
53293;SDS011;39181;53.440;5.644;2023-10-31T03:35:21;7.50;;;1.25;;
53293;SDS011;39181;53.440;5.644;2023-10-31T03:37:46;6.07;;;1.48;;
53293;SDS011;39181;53.440;5.644;2023-10-31T03:40:12;6.88;;;0.80;;
53293;SDS011;39181;53.440;5.644;2023-10-31T03:42:37;5.20;;;0.90;;
53293;SDS011;39181;53.440;5.644;2023-10-31T03:45:03;10.15;;;0.80;;
53293;SDS011;39181;53.440;5.644;2023-10-31T03:47:30;7.85;;;0.70;;
53293;SDS011;39181;53.440;5.644;2023-10-31T03:49:55;5.78;;;1.40;;
53293;SDS011;39181;53.440;5.644;2023-10-31T03:52:21;7.03;;;0.70;;
53293;SDS011;39181;53.440;5.644;2023-10-31T03:54:47;11.82;;;0.80;;
53293;SDS011;39181;53.440;5.644;2023-10-31T03:57:13;8.50;;;0.70;;
53293;SDS011;39181;53.440;5.644;2023-10-31T03:59:38;10.52;;;0.90;;
53293;SDS011;39181;53.440;5.644;2023-10-31T04:02:04;5.53;;;1.00;;
53293;SDS011;39181;53.440;5.644;2023-10-31T04:04:29;4.28;;;0.70;;
53293;SDS011;39181;53.440;5.644;2023-10-31T04:06:55;9.93;;;0.70;;
53293;SDS011;39181;53.440;5.644;2023-10-31T04:09:21;7.40;;;1.20;;
53293;SDS011;39181;53.440;5.644;2023-10-31T04:11:46;6.70;;;0.90;;
53293;SDS011;39181;53.440;5.644;2023-10-31T04:14:12;9.38;;;0.70;;
53293;SDS011;39181;53.440;5.644;2023-10-31T04:16:38;17.25;;;1.00;;
53293;SDS011;39181;53.440;5.644;2023-10-31T04:19:05;8.32;;;1.25;;
53293;SDS011;39181;53.440;5.644;2023-10-31T04:21:30;11.10;;;1.30;;
53293;SDS011;39181;53.440;5.644;2023-10-31T04:23:56;14.70;;;2.20;;
53293;SDS011;39181;53.440;5.644;2023-10-31T04:26:21;13.73;;;0.90;;
53293;SDS011;39181;53.440;5.644;2023-10-31T04:28:47;10.25;;;1.20;;
53293;SDS011;39181;53.440;5.644;2023-10-31T04:31:12;9.25;;;0.93;;
53293;SDS011;39181;53.440;5.644;2023-10-31T04:33:38;16.48;;;1.30;;
53293;SDS011;39181;53.440;5.644;2023-10-31T04:36:04;11.88;;;1.33;;
53293;SDS011;39181;53.440;5.644;2023-10-31T04:38:30;15.52;;;1.40;;
53293;SDS011;39181;53.440;5.644;2023-10-31T04:40:55;13.32;;;1.40;;
53293;SDS011;39181;53.440;5.644;2023-10-31T04:43:21;12.40;;;1.15;;
53293;SDS011;39181;53.440;5.644;2023-10-31T04:45:46;13.88;;;1.52;;
53293;SDS011;39181;53.440;5.644;2023-10-31T04:48:12;14.05;;;1.20;;
53293;SDS011;39181;53.440;5.644;2023-10-31T04:50:38;11.52;;;0.98;;
53293;SDS011;39181;53.440;5.644;2023-10-31T04:53:04;15.85;;;1.10;;
53293;SDS011;39181;53.440;5.644;2023-10-31T04:55:29;10.75;;;1.50;;
53293;SDS011;39181;53.440;5.644;2023-10-31T04:57:55;8.38;;;0.73;;
53293;SDS011;39181;53.440;5.644;2023-10-31T05:00:20;8.27;;;0.63;;
53293;SDS011;39181;53.440;5.644;2023-10-31T05:02:46;6.80;;;0.75;;
53293;SDS011;39181;53.440;5.644;2023-10-31T05:05:11;8.02;;;0.70;;
53293;SDS011;39181;53.440;5.644;2023-10-31T05:07:37;5.57;;;0.50;;
53293;SDS011;39181;53.440;5.644;2023-10-31T05:10:02;6.72;;;0.70;;
53293;SDS011;39181;53.440;5.644;2023-10-31T05:12:28;3.42;;;0.50;;
53293;SDS011;39181;53.440;5.644;2023-10-31T05:14:54;4.95;;;0.30;;
53293;SDS011;39181;53.440;5.644;2023-10-31T05:17:19;4.40;;;0.50;;
53293;SDS011;39181;53.440;5.644;2023-10-31T05:19:45;7.63;;;0.60;;
53293;SDS011;39181;53.440;5.644;2023-10-31T05:22:10;7.97;;;0.70;;
53293;SDS011;39181;53.440;5.644;2023-10-31T05:24:36;7.35;;;0.45;;
53293;SDS011;39181;53.440;5.644;2023-10-31T05:27:02;5.82;;;0.50;;
53293;SDS011;39181;53.440;5.644;2023-10-31T05:29:28;3.38;;;0.50;;
53293;SDS011;39181;53.440;5.644;2023-10-31T05:31:55;12.05;;;0.82;;
53293;SDS011;39181;53.440;5.644;2023-10-31T05:34:20;6.00;;;1.30;;
53293;SDS011;39181;53.440;5.644;2023-10-31T05:36:46;2.03;;;0.45;;
53293;SDS011;39181;53.440;5.644;2023-10-31T05:39:11;7.57;;;0.68;;
53293;SDS011;39181;53.440;5.644;2023-10-31T05:41:37;4.28;;;0.40;;
53293;SDS011;39181;53.440;5.644;2023-10-31T05:44:03;2.88;;;0.40;;
53293;SDS011;39181;53.440;5.644;2023-10-31T05:46:28;4.78;;;0.60;;
53293;SDS011;39181;53.440;5.644;2023-10-31T05:48:54;9.45;;;0.70;;
53293;SDS011;39181;53.440;5.644;2023-10-31T05:51:19;4.50;;;0.68;;
53293;SDS011;39181;53.440;5.644;2023-10-31T05:53:46;6.38;;;1.10;;
53293;SDS011;39181;53.440;5.644;2023-10-31T05:56:13;6.20;;;0.50;;
53293;SDS011;39181;53.440;5.644;2023-10-31T05:58:40;6.60;;;0.40;;
53293;SDS011;39181;53.440;5.644;2023-10-31T06:01:06;7.25;;;0.70;;
53293;SDS011;39181;53.440;5.644;2023-10-31T06:03:33;5.07;;;0.30;;
53293;SDS011;39181;53.440;5.644;2023-10-31T06:05:58;5.18;;;0.40;;
53293;SDS011;39181;53.440;5.644;2023-10-31T06:08:24;1.05;;;0.22;;
53293;SDS011;39181;53.440;5.644;2023-10-31T06:10:53;3.47;;;0.40;;
53293;SDS011;39181;53.440;5.644;2023-10-31T06:13:18;4.05;;;0.25;;
53293;SDS011;39181;53.440;5.644;2023-10-31T06:15:44;3.28;;;0.47;;
53293;SDS011;39181;53.440;5.644;2023-10-31T06:18:10;3.88;;;0.50;;
53293;SDS011;39181;53.440;5.644;2023-10-31T06:20:35;7.82;;;0.57;;
53293;SDS011;39181;53.440;5.644;2023-10-31T06:23:01;5.93;;;0.60;;
53293;SDS011;39181;53.440;5.644;2023-10-31T06:25:30;7.30;;;0.75;;
53293;SDS011;39181;53.440;5.644;2023-10-31T06:27:55;5.45;;;0.50;;
53293;SDS011;39181;53.440;5.644;2023-10-31T06:30:23;9.20;;;1.08;;
53293;SDS011;39181;53.440;5.644;2023-10-31T06:32:52;3.65;;;0.40;;
53293;SDS011;39181;53.440;5.644;2023-10-31T06:35:18;10.32;;;0.93;;
53293;SDS011;39181;53.440;5.644;2023-10-31T06:37:44;14.38;;;1.38;;
53293;SDS011;39181;53.440;5.644;2023-10-31T06:40:09;5.28;;;0.60;;
53293;SDS011;39181;53.440;5.644;2023-10-31T06:42:35;9.77;;;0.80;;
53293;SDS011;39181;53.440;5.644;2023-10-31T06:45:01;9.35;;;1.35;;
53293;SDS011;39181;53.440;5.644;2023-10-31T06:47:27;5.82;;;0.80;;
53293;SDS011;39181;53.440;5.644;2023-10-31T06:49:53;5.65;;;0.70;;
53293;SDS011;39181;53.440;5.644;2023-10-31T06:52:18;12.75;;;1.25;;
53293;SDS011;39181;53.440;5.644;2023-10-31T06:54:44;10.05;;;1.05;;
53293;SDS011;39181;53.440;5.644;2023-10-31T06:57:09;9.65;;;1.15;;
53293;SDS011;39181;53.440;5.644;2023-10-31T06:59:35;14.25;;;1.17;;
53293;SDS011;39181;53.440;5.644;2023-10-31T07:02:01;9.90;;;0.82;;
53293;SDS011;39181;53.440;5.644;2023-10-31T07:04:27;7.38;;;0.80;;
53293;SDS011;39181;53.440;5.644;2023-10-31T07:06:52;11.35;;;1.23;;
53293;SDS011;39181;53.440;5.644;2023-10-31T07:09:22;5.93;;;0.95;;
53293;SDS011;39181;53.440;5.644;2023-10-31T07:11:48;7.72;;;0.73;;
53293;SDS011;39181;53.440;5.644;2023-10-31T07:14:14;7.88;;;1.23;;
53293;SDS011;39181;53.440;5.644;2023-10-31T07:16:40;5.93;;;0.88;;
53293;SDS011;39181;53.440;5.644;2023-10-31T07:19:05;11.07;;;1.27;;
53293;SDS011;39181;53.440;5.644;2023-10-31T07:21:31;11.70;;;1.17;;
53293;SDS011;39181;53.440;5.644;2023-10-31T07:23:56;6.97;;;1.02;;
53293;SDS011;39181;53.440;5.644;2023-10-31T07:26:22;12.18;;;1.02;;
53293;SDS011;39181;53.440;5.644;2023-10-31T07:28:48;10.40;;;1.25;;
53293;SDS011;39181;53.440;5.644;2023-10-31T07:31:14;5.50;;;0.63;;
53293;SDS011;39181;53.440;5.644;2023-10-31T07:33:40;4.38;;;0.65;;
53293;SDS011;39181;53.440;5.644;2023-10-31T07:36:05;5.97;;;0.90;;
53293;SDS011;39181;53.440;5.644;2023-10-31T07:38:31;7.13;;;0.77;;
53293;SDS011;39181;53.440;5.644;2023-10-31T07:40:58;7.82;;;0.93;;
53293;SDS011;39181;53.440;5.644;2023-10-31T07:43:24;8.93;;;1.08;;
53293;SDS011;39181;53.440;5.644;2023-10-31T07:45:50;11.23;;;0.80;;
53293;SDS011;39181;53.440;5.644;2023-10-31T07:48:15;8.27;;;0.80;;
53293;SDS011;39181;53.440;5.644;2023-10-31T07:50:41;6.30;;;0.60;;
53293;SDS011;39181;53.440;5.644;2023-10-31T07:53:07;5.32;;;0.80;;
53293;SDS011;39181;53.440;5.644;2023-10-31T07:55:32;8.13;;;1.08;;
53293;SDS011;39181;53.440;5.644;2023-10-31T07:57:58;5.57;;;0.75;;
53293;SDS011;39181;53.440;5.644;2023-10-31T08:00:25;9.65;;;0.90;;
53293;SDS011;39181;53.440;5.644;2023-10-31T08:02:51;6.78;;;0.70;;
53293;SDS011;39181;53.440;5.644;2023-10-31T08:05:17;6.32;;;0.90;;
53293;SDS011;39181;53.440;5.644;2023-10-31T08:07:42;8.35;;;1.17;;
53293;SDS011;39181;53.440;5.644;2023-10-31T08:10:09;8.57;;;1.00;;
53293;SDS011;39181;53.440;5.644;2023-10-31T08:12:35;5.78;;;0.80;;
53293;SDS011;39181;53.440;5.644;2023-10-31T08:15:01;8.07;;;0.80;;
53293;SDS011;39181;53.440;5.644;2023-10-31T08:17:27;6.40;;;0.80;;
53293;SDS011;39181;53.440;5.644;2023-10-31T08:19:52;10.57;;;1.27;;
53293;SDS011;39181;53.440;5.644;2023-10-31T08:22:18;11.10;;;1.10;;
53293;SDS011;39181;53.440;5.644;2023-10-31T08:24:43;5.47;;;0.75;;
53293;SDS011;39181;53.440;5.644;2023-10-31T08:27:09;4.18;;;0.30;;
53293;SDS011;39181;53.440;5.644;2023-10-31T08:29:36;3.28;;;0.43;;
53293;SDS011;39181;53.440;5.644;2023-10-31T08:32:01;6.65;;;0.73;;
53293;SDS011;39181;53.440;5.644;2023-10-31T08:34:29;5.38;;;0.93;;
53293;SDS011;39181;53.440;5.644;2023-10-31T08:36:54;5.60;;;0.60;;
53293;SDS011;39181;53.440;5.644;2023-10-31T08:39:21;3.22;;;0.40;;
53293;SDS011;39181;53.440;5.644;2023-10-31T08:41:51;3.75;;;0.57;;
53293;SDS011;39181;53.440;5.644;2023-10-31T08:44:20;5.95;;;0.95;;
53293;SDS011;39181;53.440;5.644;2023-10-31T08:46:46;7.53;;;0.68;;
53293;SDS011;39181;53.440;5.644;2023-10-31T08:49:15;4.63;;;0.90;;
53293;SDS011;39181;53.440;5.644;2023-10-31T08:51:41;7.82;;;0.70;;
53293;SDS011;39181;53.440;5.644;2023-10-31T08:54:07;6.80;;;0.98;;
53293;SDS011;39181;53.440;5.644;2023-10-31T08:56:33;7.38;;;0.88;;
53293;SDS011;39181;53.440;5.644;2023-10-31T08:58:59;5.40;;;0.88;;
53293;SDS011;39181;53.440;5.644;2023-10-31T09:01:25;5.60;;;1.10;;
53293;SDS011;39181;53.440;5.644;2023-10-31T09:03:51;7.95;;;1.10;;
53293;SDS011;39181;53.440;5.644;2023-10-31T09:06:17;12.77;;;0.80;;
53293;SDS011;39181;53.440;5.644;2023-10-31T09:08:43;8.52;;;0.70;;
53293;SDS011;39181;53.440;5.644;2023-10-31T09:11:08;5.90;;;1.10;;
53293;SDS011;39181;53.440;5.644;2023-10-31T09:13:34;3.78;;;0.50;;
53293;SDS011;39181;53.440;5.644;2023-10-31T09:15:59;3.40;;;0.40;;
53293;SDS011;39181;53.440;5.644;2023-10-31T09:18:25;7.63;;;1.80;;
53293;SDS011;39181;53.440;5.644;2023-10-31T09:20:51;7.03;;;0.70;;
53293;SDS011;39181;53.440;5.644;2023-10-31T09:23:17;5.15;;;0.65;;
53293;SDS011;39181;53.440;5.644;2023-10-31T09:25:43;5.45;;;0.90;;
53293;SDS011;39181;53.440;5.644;2023-10-31T09:28:09;6.97;;;0.63;;
53293;SDS011;39181;53.440;5.644;2023-10-31T09:30:35;8.48;;;1.10;;
53293;SDS011;39181;53.440;5.644;2023-10-31T09:33:01;7.05;;;1.10;;
53293;SDS011;39181;53.440;5.644;2023-10-31T09:35:26;6.78;;;0.52;;
53293;SDS011;39181;53.440;5.644;2023-10-31T09:37:52;11.88;;;0.90;;
53293;SDS011;39181;53.440;5.644;2023-10-31T09:40:19;6.53;;;1.02;;
53293;SDS011;39181;53.440;5.644;2023-10-31T09:42:45;7.40;;;0.90;;
53293;SDS011;39181;53.440;5.644;2023-10-31T09:45:11;5.88;;;0.50;;
53293;SDS011;39181;53.440;5.644;2023-10-31T09:47:38;11.10;;;1.52;;
53293;SDS011;39181;53.440;5.644;2023-10-31T09:50:04;8.40;;;0.90;;
53293;SDS011;39181;53.440;5.644;2023-10-31T09:52:30;6.32;;;0.95;;
53293;SDS011;39181;53.440;5.644;2023-10-31T09:54:56;10.52;;;1.13;;
53293;SDS011;39181;53.440;5.644;2023-10-31T09:57:22;6.30;;;0.70;;
53293;SDS011;39181;53.440;5.644;2023-10-31T09:59:47;3.97;;;0.65;;
53293;SDS011;39181;53.440;5.644;2023-10-31T10:02:13;5.07;;;0.65;;
53293;SDS011;39181;53.440;5.644;2023-10-31T10:04:39;4.43;;;0.43;;
53293;SDS011;39181;53.440;5.644;2023-10-31T10:07:05;5.88;;;0.80;;
53293;SDS011;39181;53.440;5.644;2023-10-31T10:09:30;6.45;;;0.75;;
53293;SDS011;39181;53.440;5.644;2023-10-31T10:11:59;9.05;;;1.73;;
53293;SDS011;39181;53.440;5.644;2023-10-31T10:14:26;8.85;;;0.77;;
53293;SDS011;39181;53.440;5.644;2023-10-31T10:16:58;3.53;;;0.40;;
53293;SDS011;39181;53.440;5.644;2023-10-31T10:19:24;3.20;;;0.30;;
53293;SDS011;39181;53.440;5.644;2023-10-31T10:21:51;3.70;;;0.60;;
53293;SDS011;39181;53.440;5.644;2023-10-31T10:24:21;2.60;;;0.52;;
53293;SDS011;39181;53.440;5.644;2023-10-31T10:26:48;6.90;;;0.40;;
53293;SDS011;39181;53.440;5.644;2023-10-31T10:29:15;6.63;;;0.65;;
53293;SDS011;39181;53.440;5.644;2023-10-31T10:31:40;2.83;;;0.50;;
53293;SDS011;39181;53.440;5.644;2023-10-31T10:34:07;3.85;;;0.57;;
53293;SDS011;39181;53.440;5.644;2023-10-31T10:36:34;3.05;;;0.20;;
53293;SDS011;39181;53.440;5.644;2023-10-31T10:39:00;6.45;;;0.57;;
53293;SDS011;39181;53.440;5.644;2023-10-31T10:41:26;6.05;;;0.70;;
53293;SDS011;39181;53.440;5.644;2023-10-31T10:43:55;3.90;;;0.82;;
53293;SDS011;39181;53.440;5.644;2023-10-31T10:46:34;3.75;;;0.55;;
53293;SDS011;39181;53.440;5.644;2023-10-31T10:49:03;6.30;;;0.80;;
53293;SDS011;39181;53.440;5.644;2023-10-31T10:51:37;4.05;;;0.93;;
53293;SDS011;39181;53.440;5.644;2023-10-31T10:54:51;5.90;;;0.80;;
53293;SDS011;39181;53.440;5.644;2023-10-31T10:57:14;7.10;;;1.05;;
53293;SDS011;39181;53.440;5.644;2023-10-31T11:00:07;4.38;;;0.80;;
53293;SDS011;39181;53.440;5.644;2023-10-31T11:02:38;5.78;;;0.90;;
53293;SDS011;39181;53.440;5.644;2023-10-31T11:05:07;8.88;;;1.20;;
53293;SDS011;39181;53.440;5.644;2023-10-31T11:07:34;6.68;;;0.85;;
53293;SDS011;39181;53.440;5.644;2023-10-31T11:10:01;9.00;;;1.27;;
53293;SDS011;39181;53.440;5.644;2023-10-31T11:12:31;7.43;;;1.10;;
53293;SDS011;39181;53.440;5.644;2023-10-31T11:14:57;4.05;;;0.60;;
53293;SDS011;39181;53.440;5.644;2023-10-31T11:17:27;6.00;;;0.60;;
53293;SDS011;39181;53.440;5.644;2023-10-31T11:19:55;6.43;;;0.70;;
53293;SDS011;39181;53.440;5.644;2023-10-31T11:22:21;4.45;;;0.63;;
53293;SDS011;39181;53.440;5.644;2023-10-31T11:24:50;8.15;;;0.80;;
53293;SDS011;39181;53.440;5.644;2023-10-31T11:27:16;3.90;;;0.93;;
53293;SDS011;39181;53.440;5.644;2023-10-31T11:29:43;5.38;;;0.68;;
53293;SDS011;39181;53.440;5.644;2023-10-31T11:32:12;4.22;;;0.40;;
53293;SDS011;39181;53.440;5.644;2023-10-31T11:34:39;6.68;;;0.35;;
53293;SDS011;39181;53.440;5.644;2023-10-31T11:37:25;3.05;;;0.60;;
53293;SDS011;39181;53.440;5.644;2023-10-31T11:42:41;2.88;;;0.40;;
53293;SDS011;39181;53.440;5.644;2023-10-31T11:45:07;3.65;;;0.35;;
53293;SDS011;39181;53.440;5.644;2023-10-31T11:50:12;3.00;;;0.38;;
53293;SDS011;39181;53.440;5.644;2023-10-31T11:52:38;5.03;;;0.60;;
53293;SDS011;39181;53.440;5.644;2023-10-31T11:55:04;5.40;;;0.50;;
53293;SDS011;39181;53.440;5.644;2023-10-31T11:57:34;4.88;;;0.38;;
53293;SDS011;39181;53.440;5.644;2023-10-31T11:59:59;4.40;;;0.28;;
53293;SDS011;39181;53.440;5.644;2023-10-31T12:02:25;4.60;;;0.68;;
53293;SDS011;39181;53.440;5.644;2023-10-31T12:04:51;6.88;;;0.68;;
53293;SDS011;39181;53.440;5.644;2023-10-31T12:07:18;4.50;;;0.20;;
53293;SDS011;39181;53.440;5.644;2023-10-31T12:09:47;4.05;;;0.30;;
53293;SDS011;39181;53.440;5.644;2023-10-31T12:12:13;4.60;;;0.35;;
53293;SDS011;39181;53.440;5.644;2023-10-31T12:14:39;3.20;;;0.47;;
53293;SDS011;39181;53.440;5.644;2023-10-31T12:17:05;3.58;;;0.32;;
53293;SDS011;39181;53.440;5.644;2023-10-31T12:19:35;2.90;;;0.57;;
53293;SDS011;39181;53.440;5.644;2023-10-31T12:22:01;4.07;;;0.20;;
53293;SDS011;39181;53.440;5.644;2023-10-31T12:24:28;2.65;;;0.40;;
53293;SDS011;39181;53.440;5.644;2023-10-31T12:26:53;2.88;;;0.32;;
53293;SDS011;39181;53.440;5.644;2023-10-31T12:29:20;6.38;;;0.30;;
53293;SDS011;39181;53.440;5.644;2023-10-31T12:31:46;4.40;;;0.93;;
53293;SDS011;39181;53.440;5.644;2023-10-31T12:34:14;2.63;;;0.30;;
53293;SDS011;39181;53.440;5.644;2023-10-31T12:36:40;8.68;;;0.38;;
53293;SDS011;39181;53.440;5.644;2023-10-31T12:39:08;3.80;;;0.77;;
53293;SDS011;39181;53.440;5.644;2023-10-31T12:41:37;3.70;;;0.50;;
53293;SDS011;39181;53.440;5.644;2023-10-31T12:44:03;1.80;;;0.30;;
53293;SDS011;39181;53.440;5.644;2023-10-31T12:46:30;2.47;;;0.35;;
53293;SDS011;39181;53.440;5.644;2023-10-31T12:48:59;2.05;;;0.30;;
53293;SDS011;39181;53.440;5.644;2023-10-31T12:51:25;2.22;;;0.40;;
53293;SDS011;39181;53.440;5.644;2023-10-31T12:53:53;1.85;;;0.38;;
53293;SDS011;39181;53.440;5.644;2023-10-31T12:56:38;4.13;;;0.20;;
53293;SDS011;39181;53.440;5.644;2023-10-31T12:59:05;3.88;;;0.40;;
53293;SDS011;39181;53.440;5.644;2023-10-31T13:01:33;2.35;;;0.30;;
53293;SDS011;39181;53.440;5.644;2023-10-31T13:04:01;4.82;;;0.20;;
53293;SDS011;39181;53.440;5.644;2023-10-31T13:06:30;8.13;;;0.55;;
53293;SDS011;39181;53.440;5.644;2023-10-31T13:08:56;2.63;;;0.40;;
53293;SDS011;39181;53.440;5.644;2023-10-31T13:11:22;6.10;;;0.40;;
53293;SDS011;39181;53.440;5.644;2023-10-31T13:13:51;4.45;;;0.45;;
53293;SDS011;39181;53.440;5.644;2023-10-31T13:16:18;3.90;;;0.30;;
53293;SDS011;39181;53.440;5.644;2023-10-31T13:18:44;4.18;;;0.30;;
53293;SDS011;39181;53.440;5.644;2023-10-31T13:21:09;4.13;;;0.52;;
53293;SDS011;39181;53.440;5.644;2023-10-31T13:23:36;6.40;;;0.40;;
53293;SDS011;39181;53.440;5.644;2023-10-31T13:26:03;4.13;;;0.30;;
53293;SDS011;39181;53.440;5.644;2023-10-31T13:28:29;2.60;;;0.30;;
53293;SDS011;39181;53.440;5.644;2023-10-31T13:30:57;4.32;;;0.30;;
53293;SDS011;39181;53.440;5.644;2023-10-31T13:33:22;7.50;;;0.73;;
53293;SDS011;39181;53.440;5.644;2023-10-31T13:35:48;1.73;;;0.30;;
53293;SDS011;39181;53.440;5.644;2023-10-31T13:38:14;6.22;;;1.23;;
53293;SDS011;39181;53.440;5.644;2023-10-31T13:40:39;7.15;;;0.45;;
53293;SDS011;39181;53.440;5.644;2023-10-31T13:43:05;4.88;;;0.77;;
53293;SDS011;39181;53.440;5.644;2023-10-31T13:45:30;4.35;;;0.60;;
53293;SDS011;39181;53.440;5.644;2023-10-31T13:47:56;1.00;;;0.35;;
53293;SDS011;39181;53.440;5.644;2023-10-31T13:50:22;0.40;;;0.20;;
53293;SDS011;39181;53.440;5.644;2023-10-31T13:52:48;1.40;;;0.15;;
53293;SDS011;39181;53.440;5.644;2023-10-31T13:55:14;6.13;;;0.40;;
53293;SDS011;39181;53.440;5.644;2023-10-31T13:57:39;2.08;;;0.35;;
53293;SDS011;39181;53.440;5.644;2023-10-31T14:00:06;2.75;;;0.40;;
53293;SDS011;39181;53.440;5.644;2023-10-31T14:02:33;1.75;;;0.20;;
53293;SDS011;39181;53.440;5.644;2023-10-31T14:05:00;2.22;;;0.47;;
53293;SDS011;39181;53.440;5.644;2023-10-31T14:07:26;5.55;;;0.57;;
53293;SDS011;39181;53.440;5.644;2023-10-31T14:09:52;3.60;;;0.20;;
53293;SDS011;39181;53.440;5.644;2023-10-31T14:12:18;4.25;;;0.38;;
53293;SDS011;39181;53.440;5.644;2023-10-31T14:14:44;2.70;;;0.63;;
53293;SDS011;39181;53.440;5.644;2023-10-31T14:17:13;6.03;;;0.40;;
53293;SDS011;39181;53.440;5.644;2023-10-31T14:19:39;5.07;;;0.50;;
53293;SDS011;39181;53.440;5.644;2023-10-31T14:22:04;4.43;;;0.30;;
53293;SDS011;39181;53.440;5.644;2023-10-31T14:24:30;3.33;;;0.30;;
53293;SDS011;39181;53.440;5.644;2023-10-31T14:26:57;5.55;;;0.55;;
53293;SDS011;39181;53.440;5.644;2023-10-31T14:29:24;2.95;;;0.50;;
53293;SDS011;39181;53.440;5.644;2023-10-31T14:31:50;4.03;;;0.52;;
53293;SDS011;39181;53.440;5.644;2023-10-31T14:34:15;5.22;;;0.50;;
53293;SDS011;39181;53.440;5.644;2023-10-31T14:36:41;2.67;;;0.30;;
53293;SDS011;39181;53.440;5.644;2023-10-31T14:39:07;1.13;;;0.20;;
53293;SDS011;39181;53.440;5.644;2023-10-31T14:41:34;1.08;;;0.32;;
53293;SDS011;39181;53.440;5.644;2023-10-31T14:44:00;4.20;;;0.55;;
53293;SDS011;39181;53.440;5.644;2023-10-31T14:46:26;4.72;;;0.70;;